sensor_id;sensor_type;location;lat;lon;timestamp;temperature;humidity
27619;DHT22;15039;50.830;4.730;2023-09-07T00:00:46;19.30;99.90
27619;DHT22;15039;50.830;4.730;2023-09-07T00:03:13;19.30;99.90
27619;DHT22;15039;50.830;4.730;2023-09-07T00:05:38;19.30;99.90
27619;DHT22;15039;50.830;4.730;2023-09-07T00:08:04;19.30;99.90
27619;DHT22;15039;50.830;4.730;2023-09-07T00:10:30;19.20;99.90
27619;DHT22;15039;50.830;4.730;2023-09-07T00:12:57;19.20;99.90
27619;DHT22;15039;50.830;4.730;2023-09-07T00:15:22;19.10;99.90
27619;DHT22;15039;50.830;4.730;2023-09-07T00:17:48;19.00;99.90
27619;DHT22;15039;50.830;4.730;2023-09-07T00:20:16;19.00;99.90
27619;DHT22;15039;50.830;4.730;2023-09-07T00:22:44;19.20;99.90
27619;DHT22;15039;50.830;4.730;2023-09-07T00:25:10;19.30;99.90
27619;DHT22;15039;50.830;4.730;2023-09-07T00:27:35;19.30;99.90
27619;DHT22;15039;50.830;4.730;2023-09-07T00:30:01;19.20;99.90
27619;DHT22;15039;50.830;4.730;2023-09-07T00:32:27;19.10;99.90
27619;DHT22;15039;50.830;4.730;2023-09-07T00:34:53;19.00;99.90
27619;DHT22;15039;50.830;4.730;2023-09-07T00:37:18;18.90;99.90
27619;DHT22;15039;50.830;4.730;2023-09-07T00:39:44;18.90;99.90
27619;DHT22;15039;50.830;4.730;2023-09-07T00:42:09;18.80;99.90
27619;DHT22;15039;50.830;4.730;2023-09-07T00:44:35;18.80;99.90
27619;DHT22;15039;50.830;4.730;2023-09-07T00:47:00;18.70;99.90
27619;DHT22;15039;50.830;4.730;2023-09-07T00:49:26;18.70;99.90
27619;DHT22;15039;50.830;4.730;2023-09-07T00:51:52;18.70;99.90
27619;DHT22;15039;50.830;4.730;2023-09-07T00:54:18;18.60;99.90
27619;DHT22;15039;50.830;4.730;2023-09-07T00:56:44;18.60;99.90
27619;DHT22;15039;50.830;4.730;2023-09-07T00:59:10;18.70;99.90
27619;DHT22;15039;50.830;4.730;2023-09-07T01:01:36;18.60;99.90
27619;DHT22;15039;50.830;4.730;2023-09-07T01:04:02;18.80;99.90
27619;DHT22;15039;50.830;4.730;2023-09-07T01:07:13;18.90;99.90
27619;DHT22;15039;50.830;4.730;2023-09-07T01:09:19;18.80;99.90
27619;DHT22;15039;50.830;4.730;2023-09-07T01:11:45;19.10;99.90
27619;DHT22;15039;50.830;4.730;2023-09-07T01:14:10;19.00;99.90
27619;DHT22;15039;50.830;4.730;2023-09-07T01:16:36;18.80;99.90
27619;DHT22;15039;50.830;4.730;2023-09-07T01:19:04;18.80;99.90
27619;DHT22;15039;50.830;4.730;2023-09-07T01:21:33;18.70;99.90
27619;DHT22;15039;50.830;4.730;2023-09-07T01:23:59;18.60;99.90
27619;DHT22;15039;50.830;4.730;2023-09-07T01:26:25;18.60;99.90
27619;DHT22;15039;50.830;4.730;2023-09-07T01:28:51;18.50;99.90
27619;DHT22;15039;50.830;4.730;2023-09-07T01:31:17;18.70;99.90
27619;DHT22;15039;50.830;4.730;2023-09-07T01:33:42;18.70;99.90
27619;DHT22;15039;50.830;4.730;2023-09-07T01:36:08;18.70;99.90
27619;DHT22;15039;50.830;4.730;2023-09-07T01:38:33;18.50;99.90
27619;DHT22;15039;50.830;4.730;2023-09-07T01:40:59;18.40;99.90
27619;DHT22;15039;50.830;4.730;2023-09-07T01:43:24;18.40;99.90
27619;DHT22;15039;50.830;4.730;2023-09-07T01:45:50;18.30;99.90
27619;DHT22;15039;50.830;4.730;2023-09-07T01:48:16;18.30;99.90
27619;DHT22;15039;50.830;4.730;2023-09-07T01:50:41;18.30;99.90
27619;DHT22;15039;50.830;4.730;2023-09-07T01:53:07;18.30;99.90
27619;DHT22;15039;50.830;4.730;2023-09-07T01:55:32;18.30;99.90
27619;DHT22;15039;50.830;4.730;2023-09-07T01:57:58;18.30;99.90
27619;DHT22;15039;50.830;4.730;2023-09-07T02:00:23;18.30;99.90
27619;DHT22;15039;50.830;4.730;2023-09-07T02:02:49;18.40;99.90
27619;DHT22;15039;50.830;4.730;2023-09-07T02:05:15;18.50;99.90
27619;DHT22;15039;50.830;4.730;2023-09-07T02:07:41;18.50;99.90
27619;DHT22;15039;50.830;4.730;2023-09-07T02:10:07;18.50;99.90
27619;DHT22;15039;50.830;4.730;2023-09-07T02:12:33;18.60;99.90
27619;DHT22;15039;50.830;4.730;2023-09-07T02:15:00;18.40;99.90
27619;DHT22;15039;50.830;4.730;2023-09-07T02:17:26;18.40;99.90
27619;DHT22;15039;50.830;4.730;2023-09-07T02:19:53;18.20;99.90
27619;DHT22;15039;50.830;4.730;2023-09-07T02:22:19;18.20;99.90
27619;DHT22;15039;50.830;4.730;2023-09-07T02:24:44;18.10;99.90
27619;DHT22;15039;50.830;4.730;2023-09-07T02:27:10;18.00;99.90
27619;DHT22;15039;50.830;4.730;2023-09-07T02:29:35;18.10;99.90
27619;DHT22;15039;50.830;4.730;2023-09-07T02:32:01;18.00;99.90
27619;DHT22;15039;50.830;4.730;2023-09-07T02:34:26;18.00;99.90
27619;DHT22;15039;50.830;4.730;2023-09-07T02:36:52;18.00;99.90
27619;DHT22;15039;50.830;4.730;2023-09-07T02:39:17;18.00;99.90
27619;DHT22;15039;50.830;4.730;2023-09-07T02:41:43;17.90;99.90
27619;DHT22;15039;50.830;4.730;2023-09-07T02:44:10;18.10;99.90
27619;DHT22;15039;50.830;4.730;2023-09-07T02:46:36;18.30;99.90
27619;DHT22;15039;50.830;4.730;2023-09-07T02:49:01;18.40;99.90
27619;DHT22;15039;50.830;4.730;2023-09-07T02:51:27;18.40;99.90
27619;DHT22;15039;50.830;4.730;2023-09-07T02:53:53;18.30;99.90
27619;DHT22;15039;50.830;4.730;2023-09-07T02:56:18;18.30;99.90
27619;DHT22;15039;50.830;4.730;2023-09-07T02:58:44;18.10;99.90
27619;DHT22;15039;50.830;4.730;2023-09-07T03:01:10;17.90;99.90
27619;DHT22;15039;50.830;4.730;2023-09-07T03:03:36;18.00;99.90
27619;DHT22;15039;50.830;4.730;2023-09-07T03:06:08;17.90;99.90
27619;DHT22;15039;50.830;4.730;2023-09-07T03:08:34;17.80;99.90
27619;DHT22;15039;50.830;4.730;2023-09-07T03:11:03;17.60;99.90
27619;DHT22;15039;50.830;4.730;2023-09-07T03:13:30;17.60;99.90
27619;DHT22;15039;50.830;4.730;2023-09-07T03:15:55;17.50;99.90
27619;DHT22;15039;50.830;4.730;2023-09-07T03:18:21;17.40;99.90
27619;DHT22;15039;50.830;4.730;2023-09-07T03:20:46;17.40;99.90
27619;DHT22;15039;50.830;4.730;2023-09-07T03:23:12;17.30;99.90
27619;DHT22;15039;50.830;4.730;2023-09-07T03:25:38;17.30;99.90
27619;DHT22;15039;50.830;4.730;2023-09-07T03:28:03;17.30;99.90
27619;DHT22;15039;50.830;4.730;2023-09-07T03:30:29;17.20;99.90
27619;DHT22;15039;50.830;4.730;2023-09-07T03:32:55;17.20;99.90
27619;DHT22;15039;50.830;4.730;2023-09-07T03:35:20;17.20;99.90
27619;DHT22;15039;50.830;4.730;2023-09-07T03:37:46;17.00;99.90
27619;DHT22;15039;50.830;4.730;2023-09-07T03:40:12;17.00;99.90
27619;DHT22;15039;50.830;4.730;2023-09-07T03:42:38;17.00;99.90
27619;DHT22;15039;50.830;4.730;2023-09-07T03:45:04;17.00;99.90
27619;DHT22;15039;50.830;4.730;2023-09-07T03:47:30;17.00;99.90
27619;DHT22;15039;50.830;4.730;2023-09-07T03:49:56;17.00;99.90
27619;DHT22;15039;50.830;4.730;2023-09-07T03:52:22;16.90;99.90
27619;DHT22;15039;50.830;4.730;2023-09-07T03:54:50;16.90;99.90
27619;DHT22;15039;50.830;4.730;2023-09-07T03:57:16;16.80;99.90
27619;DHT22;15039;50.830;4.730;2023-09-07T03:59:41;16.80;99.90
27619;DHT22;15039;50.830;4.730;2023-09-07T04:02:07;16.80;99.90
27619;DHT22;15039;50.830;4.730;2023-09-07T04:04:33;16.80;99.90
27619;DHT22;15039;50.830;4.730;2023-09-07T04:06:58;16.80;99.90
27619;DHT22;15039;50.830;4.730;2023-09-07T04:09:24;16.60;99.90
27619;DHT22;15039;50.830;4.730;2023-09-07T04:11:49;16.60;99.90
27619;DHT22;15039;50.830;4.730;2023-09-07T04:14:15;16.60;99.90
27619;DHT22;15039;50.830;4.730;2023-09-07T04:16:40;16.70;99.90
27619;DHT22;15039;50.830;4.730;2023-09-07T04:19:06;16.80;99.90
27619;DHT22;15039;50.830;4.730;2023-09-07T04:21:31;16.70;99.90
27619;DHT22;15039;50.830;4.730;2023-09-07T04:23:57;16.70;99.90
27619;DHT22;15039;50.830;4.730;2023-09-07T04:26:22;16.60;99.90
27619;DHT22;15039;50.830;4.730;2023-09-07T04:28:48;16.60;99.90
27619;DHT22;15039;50.830;4.730;2023-09-07T04:31:13;16.60;99.90
27619;DHT22;15039;50.830;4.730;2023-09-07T04:33:39;16.50;99.90
27619;DHT22;15039;50.830;4.730;2023-09-07T04:36:08;16.60;99.90
27619;DHT22;15039;50.830;4.730;2023-09-07T04:38:34;16.60;99.90
27619;DHT22;15039;50.830;4.730;2023-09-07T04:43:51;16.50;99.90
27619;DHT22;15039;50.830;4.730;2023-09-07T04:46:17;16.50;99.90
27619;DHT22;15039;50.830;4.730;2023-09-07T04:48:42;16.40;99.90
27619;DHT22;15039;50.830;4.730;2023-09-07T04:51:09;16.50;99.90
27619;DHT22;15039;50.830;4.730;2023-09-07T04:53:36;16.40;99.90
27619;DHT22;15039;50.830;4.730;2023-09-07T04:56:02;16.40;99.90
27619;DHT22;15039;50.830;4.730;2023-09-07T04:58:28;16.40;99.90
27619;DHT22;15039;50.830;4.730;2023-09-07T05:00:53;16.40;99.90
27619;DHT22;15039;50.830;4.730;2023-09-07T05:03:19;16.40;99.90
27619;DHT22;15039;50.830;4.730;2023-09-07T05:05:45;16.40;99.90
27619;DHT22;15039;50.830;4.730;2023-09-07T05:08:10;16.40;99.90
27619;DHT22;15039;50.830;4.730;2023-09-07T05:10:36;16.30;99.90
27619;DHT22;15039;50.830;4.730;2023-09-07T05:13:02;16.30;99.90
27619;DHT22;15039;50.830;4.730;2023-09-07T05:15:28;16.30;99.90
27619;DHT22;15039;50.830;4.730;2023-09-07T05:17:54;16.30;99.90
27619;DHT22;15039;50.830;4.730;2023-09-07T05:20:19;16.30;99.90
27619;DHT22;15039;50.830;4.730;2023-09-07T05:22:45;16.30;99.90
27619;DHT22;15039;50.830;4.730;2023-09-07T05:25:11;16.30;99.90
27619;DHT22;15039;50.830;4.730;2023-09-07T05:27:37;16.40;99.90
27619;DHT22;15039;50.830;4.730;2023-09-07T05:30:03;16.40;99.90
27619;DHT22;15039;50.830;4.730;2023-09-07T05:32:28;16.40;99.90
27619;DHT22;15039;50.830;4.730;2023-09-07T05:34:54;16.50;99.90
27619;DHT22;15039;50.830;4.730;2023-09-07T05:37:19;16.40;99.90
27619;DHT22;15039;50.830;4.730;2023-09-07T05:39:45;16.40;99.90
27619;DHT22;15039;50.830;4.730;2023-09-07T05:42:11;16.50;99.90
27619;DHT22;15039;50.830;4.730;2023-09-07T05:44:37;16.50;99.90
27619;DHT22;15039;50.830;4.730;2023-09-07T05:47:03;16.60;99.90
27619;DHT22;15039;50.830;4.730;2023-09-07T05:49:29;16.60;99.90
27619;DHT22;15039;50.830;4.730;2023-09-07T05:51:54;16.60;99.90
27619;DHT22;15039;50.830;4.730;2023-09-07T05:54:20;16.60;99.90
27619;DHT22;15039;50.830;4.730;2023-09-07T05:56:45;16.70;99.90
27619;DHT22;15039;50.830;4.730;2023-09-07T05:59:11;16.70;99.90
27619;DHT22;15039;50.830;4.730;2023-09-07T06:01:36;16.80;99.90
27619;DHT22;15039;50.830;4.730;2023-09-07T06:04:03;16.90;99.90
27619;DHT22;15039;50.830;4.730;2023-09-07T06:06:29;17.00;99.90
27619;DHT22;15039;50.830;4.730;2023-09-07T06:08:55;17.10;99.90
27619;DHT22;15039;50.830;4.730;2023-09-07T06:11:20;17.20;99.90
27619;DHT22;15039;50.830;4.730;2023-09-07T06:13:46;17.60;99.90
27619;DHT22;15039;50.830;4.730;2023-09-07T06:16:12;17.80;99.90
27619;DHT22;15039;50.830;4.730;2023-09-07T06:18:38;18.00;99.90
27619;DHT22;15039;50.830;4.730;2023-09-07T06:21:04;18.20;99.90
27619;DHT22;15039;50.830;4.730;2023-09-07T06:23:31;18.30;99.90
27619;DHT22;15039;50.830;4.730;2023-09-07T06:25:56;18.40;99.90
27619;DHT22;15039;50.830;4.730;2023-09-07T06:28:22;18.40;99.90
27619;DHT22;15039;50.830;4.730;2023-09-07T06:30:48;18.40;99.90
27619;DHT22;15039;50.830;4.730;2023-09-07T06:33:13;18.50;99.90
27619;DHT22;15039;50.830;4.730;2023-09-07T06:35:39;18.50;99.90
27619;DHT22;15039;50.830;4.730;2023-09-07T06:38:04;18.40;99.90
27619;DHT22;15039;50.830;4.730;2023-09-07T06:40:30;18.40;99.90
27619;DHT22;15039;50.830;4.730;2023-09-07T06:42:55;18.40;99.90
27619;DHT22;15039;50.830;4.730;2023-09-07T06:45:22;18.70;99.90
27619;DHT22;15039;50.830;4.730;2023-09-07T06:47:49;19.00;99.90
27619;DHT22;15039;50.830;4.730;2023-09-07T06:50:15;19.10;99.90
27619;DHT22;15039;50.830;4.730;2023-09-07T06:52:41;19.20;99.90
27619;DHT22;15039;50.830;4.730;2023-09-07T06:55:06;19.40;99.90
27619;DHT22;15039;50.830;4.730;2023-09-07T06:57:33;19.40;99.90
27619;DHT22;15039;50.830;4.730;2023-09-07T06:59:59;19.40;99.90
27619;DHT22;15039;50.830;4.730;2023-09-07T07:02:25;19.30;99.90
27619;DHT22;15039;50.830;4.730;2023-09-07T07:04:50;19.30;99.90
27619;DHT22;15039;50.830;4.730;2023-09-07T07:07:19;19.30;99.90
27619;DHT22;15039;50.830;4.730;2023-09-07T07:09:46;19.40;99.90
27619;DHT22;15039;50.830;4.730;2023-09-07T07:12:11;19.40;99.90
27619;DHT22;15039;50.830;4.730;2023-09-07T07:14:47;19.60;99.90
27619;DHT22;15039;50.830;4.730;2023-09-07T07:17:12;19.80;99.90
27619;DHT22;15039;50.830;4.730;2023-09-07T07:19:38;19.80;99.90
27619;DHT22;15039;50.830;4.730;2023-09-07T07:22:03;20.00;99.90
27619;DHT22;15039;50.830;4.730;2023-09-07T07:24:30;20.00;99.90
27619;DHT22;15039;50.830;4.730;2023-09-07T07:26:56;20.00;99.90
27619;DHT22;15039;50.830;4.730;2023-09-07T07:29:21;20.10;99.90
27619;DHT22;15039;50.830;4.730;2023-09-07T07:31:47;20.20;99.90
27619;DHT22;15039;50.830;4.730;2023-09-07T07:34:13;20.10;99.90
27619;DHT22;15039;50.830;4.730;2023-09-07T07:36:39;20.10;99.90
27619;DHT22;15039;50.830;4.730;2023-09-07T07:39:05;20.30;99.90
27619;DHT22;15039;50.830;4.730;2023-09-07T07:41:34;20.50;99.90
27619;DHT22;15039;50.830;4.730;2023-09-07T07:44:04;20.50;99.90
27619;DHT22;15039;50.830;4.730;2023-09-07T07:46:30;20.70;99.90
27619;DHT22;15039;50.830;4.730;2023-09-07T07:48:55;20.70;99.90
27619;DHT22;15039;50.830;4.730;2023-09-07T07:51:22;20.70;99.90
27619;DHT22;15039;50.830;4.730;2023-09-07T07:53:47;20.80;99.90
27619;DHT22;15039;50.830;4.730;2023-09-07T07:56:17;20.90;99.90
27619;DHT22;15039;50.830;4.730;2023-09-07T07:58:44;20.90;99.90
27619;DHT22;15039;50.830;4.730;2023-09-07T08:01:15;21.00;99.90
27619;DHT22;15039;50.830;4.730;2023-09-07T08:03:40;21.20;99.90
27619;DHT22;15039;50.830;4.730;2023-09-07T08:06:06;21.30;99.90
27619;DHT22;15039;50.830;4.730;2023-09-07T08:08:36;21.40;99.90
27619;DHT22;15039;50.830;4.730;2023-09-07T08:11:02;21.50;99.90
27619;DHT22;15039;50.830;4.730;2023-09-07T08:13:33;21.60;99.90
27619;DHT22;15039;50.830;4.730;2023-09-07T08:16:03;21.80;99.90
27619;DHT22;15039;50.830;4.730;2023-09-07T08:18:29;21.80;99.90
27619;DHT22;15039;50.830;4.730;2023-09-07T08:20:58;21.80;99.90
27619;DHT22;15039;50.830;4.730;2023-09-07T08:23:24;21.80;99.90
27619;DHT22;15039;50.830;4.730;2023-09-07T08:25:53;21.90;99.90
27619;DHT22;15039;50.830;4.730;2023-09-07T08:28:19;22.00;99.90
27619;DHT22;15039;50.830;4.730;2023-09-07T08:30:51;22.00;99.90
27619;DHT22;15039;50.830;4.730;2023-09-07T08:33:23;22.10;99.90
27619;DHT22;15039;50.830;4.730;2023-09-07T08:36:01;22.20;99.90
27619;DHT22;15039;50.830;4.730;2023-09-07T08:38:27;22.40;99.90
27619;DHT22;15039;50.830;4.730;2023-09-07T08:40:56;22.40;99.90
27619;DHT22;15039;50.830;4.730;2023-09-07T08:43:32;22.40;99.90
27619;DHT22;15039;50.830;4.730;2023-09-07T08:46:23;22.50;99.90
27619;DHT22;15039;50.830;4.730;2023-09-07T08:48:57;22.70;99.90
27619;DHT22;15039;50.830;4.730;2023-09-07T08:51:33;22.90;99.90
27619;DHT22;15039;50.830;4.730;2023-09-07T08:54:01;22.90;99.90
27619;DHT22;15039;50.830;4.730;2023-09-07T08:56:31;23.20;99.90
27619;DHT22;15039;50.830;4.730;2023-09-07T08:59:00;23.30;99.90
27619;DHT22;15039;50.830;4.730;2023-09-07T09:01:27;23.40;99.90
27619;DHT22;15039;50.830;4.730;2023-09-07T09:03:57;23.40;99.90
27619;DHT22;15039;50.830;4.730;2023-09-07T09:06:23;23.50;99.90
27619;DHT22;15039;50.830;4.730;2023-09-07T09:08:50;23.80;99.90
27619;DHT22;15039;50.830;4.730;2023-09-07T09:11:22;23.80;99.90
27619;DHT22;15039;50.830;4.730;2023-09-07T09:13:52;24.00;99.90
27619;DHT22;15039;50.830;4.730;2023-09-07T09:16:23;24.00;99.90
27619;DHT22;15039;50.830;4.730;2023-09-07T09:18:56;24.00;99.90
27619;DHT22;15039;50.830;4.730;2023-09-07T09:21:25;24.00;99.90
27619;DHT22;15039;50.830;4.730;2023-09-07T09:23:56;24.20;99.90
27619;DHT22;15039;50.830;4.730;2023-09-07T09:26:36;24.30;99.90
27619;DHT22;15039;50.830;4.730;2023-09-07T09:29:23;24.40;99.90
27619;DHT22;15039;50.830;4.730;2023-09-07T09:31:50;24.40;99.90
27619;DHT22;15039;50.830;4.730;2023-09-07T09:34:23;24.60;99.90
27619;DHT22;15039;50.830;4.730;2023-09-07T09:36:52;24.60;99.90
27619;DHT22;15039;50.830;4.730;2023-09-07T09:39:41;24.70;99.90
27619;DHT22;15039;50.830;4.730;2023-09-07T09:42:10;24.90;99.90
27619;DHT22;15039;50.830;4.730;2023-09-07T09:44:35;25.10;99.90
27619;DHT22;15039;50.830;4.730;2023-09-07T09:47:05;25.40;99.90
27619;DHT22;15039;50.830;4.730;2023-09-07T09:49:33;25.40;99.90
27619;DHT22;15039;50.830;4.730;2023-09-07T09:52:07;25.50;99.90
27619;DHT22;15039;50.830;4.730;2023-09-07T09:54:34;25.50;99.90
27619;DHT22;15039;50.830;4.730;2023-09-07T09:57:00;25.50;99.90
27619;DHT22;15039;50.830;4.730;2023-09-07T09:59:26;25.50;99.90
27619;DHT22;15039;50.830;4.730;2023-09-07T10:01:52;25.60;99.90
27619;DHT22;15039;50.830;4.730;2023-09-07T10:04:21;25.70;99.90
27619;DHT22;15039;50.830;4.730;2023-09-07T10:06:55;25.80;99.90
27619;DHT22;15039;50.830;4.730;2023-09-07T10:09:21;25.90;99.90
27619;DHT22;15039;50.830;4.730;2023-09-07T10:11:54;25.80;99.90
27619;DHT22;15039;50.830;4.730;2023-09-07T10:14:20;25.90;99.90
27619;DHT22;15039;50.830;4.730;2023-09-07T10:16:52;25.90;99.90
27619;DHT22;15039;50.830;4.730;2023-09-07T10:19:23;26.10;99.90
27619;DHT22;15039;50.830;4.730;2023-09-07T10:21:54;26.20;99.90
27619;DHT22;15039;50.830;4.730;2023-09-07T10:24:27;26.50;99.90
27619;DHT22;15039;50.830;4.730;2023-09-07T10:26:57;26.50;99.90
27619;DHT22;15039;50.830;4.730;2023-09-07T10:29:22;26.40;99.90
27619;DHT22;15039;50.830;4.730;2023-09-07T10:31:51;26.20;99.90
27619;DHT22;15039;50.830;4.730;2023-09-07T10:34:18;26.30;99.90
27619;DHT22;15039;50.830;4.730;2023-09-07T10:36:46;26.50;99.90
27619;DHT22;15039;50.830;4.730;2023-09-07T10:39:12;26.60;99.90
27619;DHT22;15039;50.830;4.730;2023-09-07T10:41:43;26.70;99.90
27619;DHT22;15039;50.830;4.730;2023-09-07T10:44:09;26.70;99.90
27619;DHT22;15039;50.830;4.730;2023-09-07T10:46:39;26.70;99.90
27619;DHT22;15039;50.830;4.730;2023-09-07T10:49:08;26.80;99.90
27619;DHT22;15039;50.830;4.730;2023-09-07T10:51:45;26.70;99.90
27619;DHT22;15039;50.830;4.730;2023-09-07T10:54:18;26.70;99.90
27619;DHT22;15039;50.830;4.730;2023-09-07T10:56:44;26.80;99.90
27619;DHT22;15039;50.830;4.730;2023-09-07T10:59:13;26.90;99.90
27619;DHT22;15039;50.830;4.730;2023-09-07T11:01:39;26.80;99.90
27619;DHT22;15039;50.830;4.730;2023-09-07T11:04:07;26.80;99.90
27619;DHT22;15039;50.830;4.730;2023-09-07T11:06:34;27.00;99.90
27619;DHT22;15039;50.830;4.730;2023-09-07T11:09:02;27.20;99.90
27619;DHT22;15039;50.830;4.730;2023-09-07T11:11:31;27.10;99.90
27619;DHT22;15039;50.830;4.730;2023-09-07T11:13:58;27.10;99.90
27619;DHT22;15039;50.830;4.730;2023-09-07T11:16:28;27.20;99.90
27619;DHT22;15039;50.830;4.730;2023-09-07T11:18:55;27.30;99.90
27619;DHT22;15039;50.830;4.730;2023-09-07T11:21:21;27.40;99.90
27619;DHT22;15039;50.830;4.730;2023-09-07T11:23:47;27.20;99.90
27619;DHT22;15039;50.830;4.730;2023-09-07T11:26:14;27.30;99.90
27619;DHT22;15039;50.830;4.730;2023-09-07T11:28:44;27.40;99.90
27619;DHT22;15039;50.830;4.730;2023-09-07T11:31:11;27.50;99.90
27619;DHT22;15039;50.830;4.730;2023-09-07T11:33:36;27.60;99.90
27619;DHT22;15039;50.830;4.730;2023-09-07T11:36:02;27.80;99.90
27619;DHT22;15039;50.830;4.730;2023-09-07T11:38:34;27.70;99.90
27619;DHT22;15039;50.830;4.730;2023-09-07T11:41:00;27.80;99.90
27619;DHT22;15039;50.830;4.730;2023-09-07T11:43:25;27.80;99.90
27619;DHT22;15039;50.830;4.730;2023-09-07T11:45:51;27.80;99.90
27619;DHT22;15039;50.830;4.730;2023-09-07T11:48:17;27.80;99.90
27619;DHT22;15039;50.830;4.730;2023-09-07T11:50:43;27.90;99.90
27619;DHT22;15039;50.830;4.730;2023-09-07T11:53:10;27.90;99.90
27619;DHT22;15039;50.830;4.730;2023-09-07T11:55:36;28.00;99.90
27619;DHT22;15039;50.830;4.730;2023-09-07T11:58:04;28.20;99.90
27619;DHT22;15039;50.830;4.730;2023-09-07T12:00:32;28.20;99.90
27619;DHT22;15039;50.830;4.730;2023-09-07T12:02:58;28.30;99.90
27619;DHT22;15039;50.830;4.730;2023-09-07T12:05:24;28.40;99.90
27619;DHT22;15039;50.830;4.730;2023-09-07T12:07:54;28.40;99.90
27619;DHT22;15039;50.830;4.730;2023-09-07T12:10:21;28.50;99.90
27619;DHT22;15039;50.830;4.730;2023-09-07T12:12:48;28.50;99.90
27619;DHT22;15039;50.830;4.730;2023-09-07T12:15:16;28.60;99.90
27619;DHT22;15039;50.830;4.730;2023-09-07T12:17:50;28.70;99.90
27619;DHT22;15039;50.830;4.730;2023-09-07T12:20:20;28.90;99.90
27619;DHT22;15039;50.830;4.730;2023-09-07T12:22:46;28.90;99.90
27619;DHT22;15039;50.830;4.730;2023-09-07T12:25:12;28.90;99.90
27619;DHT22;15039;50.830;4.730;2023-09-07T12:27:44;29.00;99.90
27619;DHT22;15039;50.830;4.730;2023-09-07T12:30:15;29.00;99.90
27619;DHT22;15039;50.830;4.730;2023-09-07T12:32:46;29.00;99.90
27619;DHT22;15039;50.830;4.730;2023-09-07T12:35:11;29.20;99.90
27619;DHT22;15039;50.830;4.730;2023-09-07T12:37:37;29.20;99.90
27619;DHT22;15039;50.830;4.730;2023-09-07T12:40:03;29.30;99.90
27619;DHT22;15039;50.830;4.730;2023-09-07T12:42:38;29.20;99.90
27619;DHT22;15039;50.830;4.730;2023-09-07T12:45:05;29.10;99.90
27619;DHT22;15039;50.830;4.730;2023-09-07T12:47:38;28.90;99.90
27619;DHT22;15039;50.830;4.730;2023-09-07T12:50:10;29.00;99.90
27619;DHT22;15039;50.830;4.730;2023-09-07T12:52:35;29.00;99.90
27619;DHT22;15039;50.830;4.730;2023-09-07T12:55:04;29.20;99.90
27619;DHT22;15039;50.830;4.730;2023-09-07T12:57:30;29.20;99.90
27619;DHT22;15039;50.830;4.730;2023-09-07T12:59:56;29.20;99.90
27619;DHT22;15039;50.830;4.730;2023-09-07T13:02:24;29.30;99.90
27619;DHT22;15039;50.830;4.730;2023-09-07T13:04:53;29.40;99.90
27619;DHT22;15039;50.830;4.730;2023-09-07T13:07:19;29.40;99.90
27619;DHT22;15039;50.830;4.730;2023-09-07T13:09:45;29.50;99.90
27619;DHT22;15039;50.830;4.730;2023-09-07T13:12:14;29.50;99.90
27619;DHT22;15039;50.830;4.730;2023-09-07T13:14:41;29.60;99.90
27619;DHT22;15039;50.830;4.730;2023-09-07T13:17:11;29.60;99.90
27619;DHT22;15039;50.830;4.730;2023-09-07T13:19:40;29.50;99.90
27619;DHT22;15039;50.830;4.730;2023-09-07T13:22:16;29.50;99.90
27619;DHT22;15039;50.830;4.730;2023-09-07T13:24:54;29.50;99.90
27619;DHT22;15039;50.830;4.730;2023-09-07T13:27:30;29.60;99.90
27619;DHT22;15039;50.830;4.730;2023-09-07T13:29:56;29.70;99.90
27619;DHT22;15039;50.830;4.730;2023-09-07T13:32:24;29.70;99.90
27619;DHT22;15039;50.830;4.730;2023-09-07T13:34:51;29.80;99.90
27619;DHT22;15039;50.830;4.730;2023-09-07T13:37:17;29.70;99.90
27619;DHT22;15039;50.830;4.730;2023-09-07T13:39:42;29.80;99.90
27619;DHT22;15039;50.830;4.730;2023-09-07T13:42:08;29.70;99.90
27619;DHT22;15039;50.830;4.730;2023-09-07T13:44:34;29.90;99.90
27619;DHT22;15039;50.830;4.730;2023-09-07T13:47:03;29.70;99.90
27619;DHT22;15039;50.830;4.730;2023-09-07T13:49:31;29.90;99.90
27619;DHT22;15039;50.830;4.730;2023-09-07T13:51:59;29.80;99.90
27619;DHT22;15039;50.830;4.730;2023-09-07T13:54:32;29.90;99.90
27619;DHT22;15039;50.830;4.730;2023-09-07T13:56:57;29.90;99.90
27619;DHT22;15039;50.830;4.730;2023-09-07T13:59:26;29.80;99.90
27619;DHT22;15039;50.830;4.730;2023-09-07T14:01:58;30.00;99.90
27619;DHT22;15039;50.830;4.730;2023-09-07T14:04:37;30.00;99.90
27619;DHT22;15039;50.830;4.730;2023-09-07T14:07:04;30.00;99.90
27619;DHT22;15039;50.830;4.730;2023-09-07T14:09:29;30.00;99.90
27619;DHT22;15039;50.830;4.730;2023-09-07T14:11:56;30.00;99.90
27619;DHT22;15039;50.830;4.730;2023-09-07T14:14:23;30.10;99.90
27619;DHT22;15039;50.830;4.730;2023-09-07T14:16:51;30.20;99.90
27619;DHT22;15039;50.830;4.730;2023-09-07T14:19:22;30.30;99.90
27619;DHT22;15039;50.830;4.730;2023-09-07T14:21:49;30.30;99.90
27619;DHT22;15039;50.830;4.730;2023-09-07T14:24:15;30.30;99.90
27619;DHT22;15039;50.830;4.730;2023-09-07T14:26:43;30.30;99.90
27619;DHT22;15039;50.830;4.730;2023-09-07T14:29:10;30.30;99.90
27619;DHT22;15039;50.830;4.730;2023-09-07T14:31:36;30.20;99.90
27619;DHT22;15039;50.830;4.730;2023-09-07T14:34:01;30.20;99.90
27619;DHT22;15039;50.830;4.730;2023-09-07T14:36:27;30.50;99.90
27619;DHT22;15039;50.830;4.730;2023-09-07T14:38:52;30.50;99.90
27619;DHT22;15039;50.830;4.730;2023-09-07T14:41:19;30.70;99.90
27619;DHT22;15039;50.830;4.730;2023-09-07T14:43:47;30.70;99.90
27619;DHT22;15039;50.830;4.730;2023-09-07T14:46:13;30.50;99.90
27619;DHT22;15039;50.830;4.730;2023-09-07T14:48:39;30.50;99.90
27619;DHT22;15039;50.830;4.730;2023-09-07T14:51:04;30.60;99.90
27619;DHT22;15039;50.830;4.730;2023-09-07T14:53:30;30.80;99.90
27619;DHT22;15039;50.830;4.730;2023-09-07T14:55:56;30.70;99.90
27619;DHT22;15039;50.830;4.730;2023-09-07T14:58:21;30.80;99.90
27619;DHT22;15039;50.830;4.730;2023-09-07T15:00:48;30.80;99.90
27619;DHT22;15039;50.830;4.730;2023-09-07T15:03:15;30.70;99.90
27619;DHT22;15039;50.830;4.730;2023-09-07T15:05:42;30.80;99.90
27619;DHT22;15039;50.830;4.730;2023-09-07T15:08:07;30.70;99.90
27619;DHT22;15039;50.830;4.730;2023-09-07T15:10:33;30.70;99.90
27619;DHT22;15039;50.830;4.730;2023-09-07T15:13:02;30.80;99.90
27619;DHT22;15039;50.830;4.730;2023-09-07T15:15:33;30.70;99.90
27619;DHT22;15039;50.830;4.730;2023-09-07T15:18:02;30.70;99.90
27619;DHT22;15039;50.830;4.730;2023-09-07T15:20:29;30.60;99.90
27619;DHT22;15039;50.830;4.730;2023-09-07T15:22:55;30.70;99.90
27619;DHT22;15039;50.830;4.730;2023-09-07T15:25:21;30.70;99.90
27619;DHT22;15039;50.830;4.730;2023-09-07T15:27:53;30.70;99.90
27619;DHT22;15039;50.830;4.730;2023-09-07T15:30:19;31.00;99.90
27619;DHT22;15039;50.830;4.730;2023-09-07T15:32:44;30.90;99.90